Time;durP1;ratioP1;P1;durP2;ratioP2;P2;SDS_P1;SDS_P2;PMS_P1;PMS_P2;Temp;Humidity;BMP_temperature;BMP_pressure;BME280_temperature;BME280_humidity;BME280_pressure;Samples;Min_cycle;Max_cycle;Signal;HPM_P1;HPM_P2
2022/07/23 00:01:27;;;;;;;26.60;8.70;;;;;;;20.22;60.59;99563.84;5025265;28;20052;-91
2022/07/23 00:03:54;;;;;;;29.40;8.60;;;;;;;20.09;60.74;99549.38;5018298;28;20037;-92
2022/07/23 00:06:21;;;;;;;25.30;8.38;;;;;;;20.05;60.33;99540.19;5053054;28;20486;-94
2022/07/23 00:08:47;;;;;;;;;;;;;;;20.28;60.34;99581.81;5024413;28;20041;-94
2022/07/23 00:11:15;;;;;;;23.05;7.85;;;;;;;19.85;60.85;99518.06;5022408;28;19999;-91
2022/07/23 00:13:41;;;;;;;20.15;8.00;;;;;;;19.95;60.78;99539.63;5021731;28;20568;-91
2022/07/23 00:16:08;;;;;;;23.00;9.10;;;;;;;19.93;60.84;99533.66;5021295;28;20561;-92
2022/07/23 00:18:34;;;;;;;22.02;8.82;;;;;;;20.07;60.93;99558.06;5054225;28;20064;-92
2022/07/23 00:21:00;;;;;;;26.70;8.73;;;;;;;19.97;60.80;99541.22;5040130;28;20040;-95
2022/07/23 00:23:28;;;;;;;26.50;8.68;;;;;;;20.00;60.82;99540.47;5018632;28;20060;-94
2022/07/23 00:25:55;;;;;;;22.40;8.57;;;;;;;20.06;60.92;99556.44;5019301;28;20045;-95
2022/07/23 00:28:21;;;;;;;17.92;8.75;;;;;;;19.94;60.63;99531.69;5022743;28;20107;-92
2022/07/23 00:30:47;;;;;;;18.73;8.68;;;;;;;19.89;60.86;99524.47;5007155;28;20056;-91
2022/07/23 00:33:13;;;;;;;18.00;8.30;;;;;;;20.05;60.82;99562.38;5034688;28;20064;-91
2022/07/23 00:35:42;;;;;;;21.67;8.43;;;;;;;20.22;60.59;99577.72;5022816;28;20088;-92
2022/07/23 00:38:10;;;;;;;23.88;8.25;;;;;;;20.12;60.85;99565.28;5001175;28;20059;-95
2022/07/23 00:40:37;;;;;;;27.75;8.75;;;;;;;20.23;61.31;99585.72;5013564;28;20037;-92
2022/07/23 00:43:05;;;;;;;25.92;8.52;;;;;;;19.96;60.90;99545.97;5006058;28;20032;-93
2022/07/23 00:45:32;;;;;;;23.70;8.85;;;;;;;19.86;61.01;99527.19;5039984;28;20505;-93
2022/07/23 00:47:59;;;;;;;28.63;8.38;;;;;;;20.20;60.99;99586.44;5022192;28;20548;-94
2022/07/23 00:50:26;;;;;;;17.10;7.97;;;;;;;19.92;60.80;99548.69;5005704;28;20041;-95
2022/07/23 00:52:53;;;;;;;28.55;8.90;;;;;;;19.82;61.21;99520.78;5036740;28;20664;-93
2022/07/23 00:55:21;;;;;;;17.48;8.38;;;;;;;19.97;60.82;99546.78;5004343;28;20044;-94
2022/07/23 00:57:47;;;;;;;21.02;8.45;;;;;;;19.90;60.74;99537.19;5026856;28;20053;-95
2022/07/23 01:00:15;;;;;;;37.85;9.38;;;;;;;19.88;60.84;99542.28;5005437;28;20132;-90
2022/07/23 01:02:42;;;;;;;25.08;8.52;;;;;;;19.98;61.06;99551.97;5018551;28;20084;-92
2022/07/23 01:05:09;;;;;;;32.17;8.40;;;;;;;20.08;60.81;99578.31;5002741;28;20038;-94
2022/07/23 01:07:36;;;;;;;44.42;9.43;;;;;;;20.07;60.74;99573.94;5003559;28;20351;-95
2022/07/23 01:10:03;;;;;;;22.45;8.68;;;;;;;20.05;60.91;99567.94;5002256;28;20140;-95
2022/07/23 01:12:30;;;;;;;28.73;9.48;;;;;;;20.05;61.80;99574.28;5019898;28;20101;-95
2022/07/23 01:14:58;;;;;;;16.35;8.55;;;;;;;19.92;61.18;99553.44;5023051;28;20045;-95
2022/07/23 01:17:30;;;;;;;15.73;7.65;;;;;;;19.96;60.99;99559.84;5023965;28;20048;-94
2022/07/23 01:19:57;;;;;;;22.30;8.50;;;;;;;19.90;61.28;99548.28;5023736;28;20167;-90
2022/07/23 01:22:28;;;;;;;15.07;7.72;;;;;;;19.95;61.33;99550.72;5037157;28;20045;-95
2022/07/23 01:24:56;;;;;;;26.60;8.13;;;;;;;19.97;61.30;99555.94;5021472;28;20065;-95
2022/07/23 01:27:25;;;;;;;22.38;8.23;;;;;;;19.82;61.54;99529.88;5037477;28;20064;-95
2022/07/23 01:29:59;;;;;;;28.05;8.80;;;;;;;19.95;61.37;99556.28;5022678;28;20048;-94
2022/07/23 01:32:25;;;;;;;19.48;8.15;;;;;;;19.94;61.50;99562.22;5022281;28;20040;-93
2022/07/23 01:34:52;;;;;;;15.65;7.85;;;;;;;19.91;61.77;99554.63;5008058;28;20044;-94
2022/07/23 01:37:19;;;;;;;18.67;8.20;;;;;;;19.79;61.90;99533.41;5046285;28;20045;-95
2022/07/23 01:39:48;;;;;;;32.80;9.00;;;;;;;20.09;62.13;99577.91;5025528;28;20160;-95
2022/07/23 01:42:15;;;;;;;20.52;8.57;;;;;;;19.75;62.22;99527.00;5025822;28;20046;-91
2022/07/23 01:44:41;;;;;;;;;;;;;;;20.05;62.44;99587.38;5021441;28;20045;-91
2022/07/23 01:47:13;;;;;;;18.73;8.18;;;;;;;19.74;62.27;99547.59;5025955;28;20409;-90
2022/07/23 01:49:41;;;;;;;21.95;8.57;;;;;;;19.76;62.31;99550.78;5038796;28;20069;-92
2022/07/23 01:52:40;;;;;;;21.80;8.77;;;;;;;19.89;62.44;99566.06;5010627;28;20098;-93
2022/07/23 01:55:08;;;;;;;20.23;9.00;;;;;;;19.67;62.56;99530.81;5057628;28;20041;-95
2022/07/23 01:57:36;;;;;;;18.40;8.63;;;;;;;19.87;62.52;99556.53;5020087;28;20049;-95
2022/07/23 02:00:04;;;;;;;23.92;9.18;;;;;;;19.86;62.55;99569.59;5021813;28;20041;-90
2022/07/23 02:02:40;;;;;;;21.10;8.60;;;;;;;19.81;62.91;99561.59;5040234;28;20040;-95
2022/07/23 02:05:07;;;;;;;;;;;;;;;19.91;62.95;99580.41;5024406;28;20190;-94
2022/07/23 02:07:33;;;;;;;20.63;9.30;;;;;;;19.61;63.09;99537.81;5039604;28;19920;-92
2022/07/23 02:10:07;;;;;;;13.50;8.57;;;;;;;19.60;63.24;99539.78;5041114;28;20104;-92
2022/07/23 02:12:33;;;;;;;;;;;;;;;19.91;63.74;99577.63;5024960;28;20037;-92
2022/07/23 02:15:19;;;;;;;33.13;10.25;;;;;;;19.61;63.70;99540.59;5027404;28;19928;-95
2022/07/23 02:17:46;;;;;;;20.45;9.07;;;;;;;19.70;63.59;99564.16;5038950;28;20565;-94
2022/07/23 02:20:12;;;;;;;22.30;9.25;;;;;;;19.64;63.66;99553.75;5009555;28;20048;-92
2022/07/23 02:22:39;;;;;;;18.52;9.07;;;;;;;19.84;63.83;99596.91;5008881;28;20041;-94
2022/07/23 02:25:07;;;;;;;20.13;9.15;;;;;;;19.65;64.13;99558.91;5014437;28;20052;-93
2022/07/23 02:27:35;;;;;;;14.55;9.20;;;;;;;19.49;64.10;99530.44;5005041;28;20572;-92
2022/07/23 02:30:16;;;;;;;22.75;9.40;;;;;;;19.86;64.25;99583.47;5040805;28;20498;-91
2022/07/23 02:32:42;;;;;;;19.45;9.93;;;;;;;19.68;64.10;99551.84;5055831;28;20040;-93
2022/07/23 02:35:10;;;;;;;17.88;9.55;;;;;;;19.66;64.37;99545.84;5020488;28;20032;-94
2022/07/23 02:38:02;;;;;;;31.05;10.10;;;;;;;19.93;64.58;99578.06;5008106;28;20049;-92
2022/07/23 02:40:29;;;;;;;19.77;9.95;;;;;;;19.93;64.26;99586.38;5053973;28;20045;-95
2022/07/23 02:42:57;;;;;;;30.90;10.98;;;;;;;19.86;64.55;99566.00;5023029;28;20663;-95
2022/07/23 02:45:23;;;;;;;25.77;10.48;;;;;;;19.82;64.66;99560.41;5052223;28;20048;-95
2022/07/23 02:47:51;;;;;;;17.30;11.02;;;;;;;20.07;64.73;99573.94;5041291;28;20037;-91
2022/07/23 02:50:21;;;;;;;36.28;11.32;;;;;;;19.86;64.31;99555.72;5024470;28;20041;-91
2022/07/23 02:52:47;;;;;;;35.60;10.80;;;;;;;19.97;64.57;99557.88;5045201;28;20013;-94
2022/07/23 02:55:13;;;;;;;32.33;10.75;;;;;;;19.88;64.54;99550.59;5019870;28;20091;-91
2022/07/23 02:57:40;;;;;;;23.67;10.98;;;;;;;20.01;64.66;99567.09;5035680;28;20024;-90
2022/07/23 03:00:07;;;;;;;22.63;10.73;;;;;;;19.79;64.16;99543.69;5050155;28;20040;-95
2022/07/23 03:02:34;;;;;;;24.52;10.95;;;;;;;19.96;64.25;99570.94;5059319;28;20047;-95
2022/07/23 03:05:00;;;;;;;23.27;10.88;;;;;;;19.99;64.50;99578.53;5020190;28;20067;-93
2022/07/23 03:07:26;;;;;;;23.00;10.02;;;;;;;19.88;64.33;99558.94;5036153;28;20108;-90
2022/07/23 03:09:53;;;;;;;22.23;10.65;;;;;;;19.84;64.25;99548.97;5012291;28;20088;-95
2022/07/23 03:12:29;;;;;;;26.45;10.75;;;;;;;20.08;64.35;99570.78;5022605;28;20033;-95
2022/07/23 03:14:55;;;;;;;26.27;11.23;;;;;;;20.12;64.34;99570.81;5018188;28;20485;-94
2022/07/23 03:17:21;;;;;;;25.33;11.18;;;;;;;20.23;63.77;99584.88;5054778;28;20049;-94
2022/07/23 03:19:48;;;;;;;22.02;10.93;;;;;;;19.98;63.82;99557.53;5039268;28;20068;-92
2022/07/23 03:22:14;;;;;;;23.90;11.32;;;;;;;19.89;64.01;99532.78;5018274;28;20120;-94
2022/07/23 03:24:56;;;;;;;18.85;11.20;;;;;;;20.31;64.14;99597.72;5001442;28;20568;-93
2022/07/23 03:27:30;;;;;;;25.75;10.85;;;;;;;20.34;64.05;99594.19;5018248;28;20034;-94
2022/07/23 03:29:59;;;;;;;23.52;11.68;;;;;;;20.17;64.07;99570.53;5048922;28;20061;-94
2022/07/23 03:32:25;;;;;;;20.35;10.82;;;;;;;20.35;64.33;99593.03;5021988;28;20033;-93
2022/07/23 03:34:51;;;;;;;;;;;;;;;20.48;64.16;99607.50;5019500;28;20174;-95
2022/07/23 03:37:24;;;;;;;31.63;11.93;;;;;;;20.36;64.12;99577.97;5055676;28;20417;-95
2022/07/23 03:39:51;;;;;;;29.17;11.95;;;;;;;20.17;64.10;99549.13;5012045;28;20057;-94
2022/07/23 03:42:18;;;;;;;22.13;11.52;;;;;;;20.45;63.91;99588.81;5021010;28;20102;-92
2022/07/23 03:44:46;;;;;;;24.65;12.50;;;;;;;20.46;63.76;99570.97;5012725;28;20498;-93
2022/07/23 03:47:12;;;;;;;24.75;12.38;;;;;;;20.68;63.45;99603.50;5058843;28;20048;-93
2022/07/23 03:49:38;;;;;;;29.48;11.93;;;;;;;20.69;63.06;99602.31;5053364;28;20048;-91
2022/07/23 03:52:05;;;;;;;24.48;12.25;;;;;;;20.62;63.14;99577.19;5030080;28;20044;-93
2022/07/23 03:54:34;;;;;;;27.00;11.55;;;;;;;20.73;63.42;99592.06;5041222;28;20057;-95
2022/07/23 03:57:01;;;;;;;25.50;11.88;;;;;;;20.77;63.20;99587.34;5018546;28;20109;-92
2022/07/23 03:59:32;;;;;;;27.25;12.13;;;;;;;20.60;62.97;99560.13;5037767;28;20045;-90
2022/07/23 04:02:05;;;;;;;30.58;13.13;;;;;;;20.68;62.87;99561.81;5032968;28;20037;-93
2022/07/23 04:04:35;;;;;;;34.60;12.65;;;;;;;20.86;62.63;99584.28;5018230;28;20068;-91
2022/07/23 04:07:01;;;;;;;28.65;13.15;;;;;;;20.73;62.74;99552.34;5018874;28;20049;-92
2022/07/23 04:09:28;;;;;;;31.83;12.38;;;;;;;21.02;62.34;99598.00;5002708;28;20060;-94
2022/07/23 04:12:10;;;;;;;32.63;13.40;;;;;;;20.95;62.51;99578.47;5021583;28;20060;-93
2022/07/23 04:14:36;;;;;;;29.00;12.75;;;;;;;20.93;62.00;99583.63;5001602;28;20041;-94
2022/07/23 04:17:40;;;;;;;30.10;13.18;;;;;;;20.90;62.60;99559.34;5023838;28;20054;-92
2022/07/23 04:20:07;;;;;;;29.30;12.60;;;;;;;21.00;62.33;99561.47;5010023;28;20522;-93
2022/07/23 04:22:46;;;;;;;146.15;19.17;;;;;;;21.32;62.89;99596.03;5036519;28;20136;-92
2022/07/23 04:25:38;;;;;;;35.25;14.63;;;;;;;21.47;62.19;99610.13;5022787;28;20076;-94
2022/07/23 04:28:05;;;;;;;29.92;14.35;;;;;;;21.31;62.13;99582.50;5019538;28;20128;-95
2022/07/23 04:30:32;;;;;;;44.65;14.43;;;;;;;21.42;62.84;99583.44;5036456;28;20045;-92
2022/07/23 04:33:05;;;;;;;45.25;14.85;;;;;;;21.28;61.98;99561.81;5035017;28;20049;-90
2022/07/23 04:35:32;;;;;;;42.88;15.23;;;;;;;21.35;61.59;99570.25;5035769;28;20180;-93
2022/07/23 04:38:12;;;;;;;34.40;14.38;;;;;;;21.43;61.78;99564.81;5036159;28;20057;-91
2022/07/23 04:40:39;;;;;;;33.65;14.80;;;;;;;21.61;61.39;99590.03;5036700;28;20410;-93
2022/07/23 04:43:05;;;;;;;37.83;14.27;;;;;;;21.37;61.54;99539.31;5023968;28;20033;-94
2022/07/23 04:45:39;;;;;;;59.80;16.80;;;;;;;21.40;61.72;99532.19;5019309;28;20105;-93
2022/07/23 04:48:18;;;;;;;36.00;14.57;;;;;;;21.75;60.91;99579.84;5008064;28;20038;-93
2022/07/23 04:50:44;;;;;;;32.33;14.82;;;;;;;21.88;61.25;99576.78;5055033;28;20502;-94
2022/07/23 04:53:29;;;;;;;33.97;14.25;;;;;;;21.93;59.82;99573.66;5037703;28;20030;-94
2022/07/23 04:56:04;;;;;;;40.97;15.25;;;;;;;21.76;60.38;99528.59;5018928;28;20045;-94
2022/07/23 04:58:34;;;;;;;52.97;15.90;;;;;;;22.12;59.67;99575.41;5022567;28;20418;-93
2022/07/23 05:02:02;;;;;;;44.60;15.10;;;;;;;22.35;58.78;99600.28;5026224;28;20057;-94
2022/07/23 05:04:38;;;;;;;42.70;15.02;;;;;;;22.00;58.93;99535.56;5044034;28;20414;-90
2022/07/23 05:07:05;;;;;;;36.97;14.55;;;;;;;22.37;58.91;99579.25;5045299;28;20041;-94
2022/07/23 05:09:34;;;;;;;38.55;15.07;;;;;;;22.48;59.12;99587.66;5042345;28;20490;-93
2022/07/23 05:12:00;;;;;;;36.38;14.25;;;;;;;22.32;58.68;99545.38;5039323;28;20030;-91
2022/07/23 05:14:28;;;;;;;35.95;15.30;;;;;;;22.59;58.54;99585.78;5024022;28;20045;-93
2022/07/23 05:16:54;;;;;;;41.85;15.30;;;;;;;22.45;58.61;99539.13;5005899;28;20037;-94
2022/07/23 05:19:23;;;;;;;46.97;17.00;;;;;;;22.76;58.36;99584.28;5053559;28;20045;-94
2022/07/23 05:21:49;;;;;;;47.20;15.52;;;;;;;22.86;57.68;99579.97;5003371;28;20042;-90
2022/07/23 05:24:15;;;;;;;43.78;14.75;;;;;;;22.77;57.49;99560.78;5009899;28;20041;-95
2022/07/23 05:26:41;;;;;;;40.40;15.82;;;;;;;22.86;58.26;99569.63;5004580;28;20128;-91
2022/07/23 05:29:10;;;;;;;61.78;18.67;;;;;;;22.78;58.58;99544.88;5002636;28;20049;-93
2022/07/23 05:31:53;;;;;;;102.53;32.40;;;;;;;22.96;58.78;99556.97;5002660;28;20602;-90
2022/07/23 05:34:20;;;;;;;46.47;17.65;;;;;;;23.17;57.14;99587.72;4991880;28;20209;-91
2022/07/23 05:36:56;;;;;;;182.05;25.15;;;;;;;22.81;57.22;99528.16;5013768;23;20515;-92
2022/07/23 05:39:47;;;;;;;126.68;22.60;;;;;;;23.29;57.48;99594.94;5037652;28;20104;-91
2022/07/23 05:42:14;;;;;;;66.40;17.30;;;;;;;22.93;56.25;99533.44;5025478;28;20048;-91
2022/07/23 05:44:40;;;;;;;;;;;;;;;23.42;57.32;99596.19;5029940;28;20033;-93
2022/07/23 05:47:08;;;;;;;72.63;19.70;;;;;;;23.15;57.16;99553.84;5019858;28;19921;-90
2022/07/23 05:49:36;;;;;;;52.45;17.25;;;;;;;23.10;56.79;99540.28;5013697;28;20056;-91
2022/07/23 05:52:29;;;;;;;44.00;16.33;;;;;;;23.25;55.63;99537.56;5043247;28;20041;-93
2022/07/23 05:55:19;;;;;;;56.40;18.52;;;;;;;23.39;56.16;99552.34;5009732;28;20128;-90
2022/07/23 05:57:56;;;;;;;47.92;16.25;;;;;;;23.50;55.64;99557.94;5018273;28;20132;-91
2022/07/23 06:01:13;;;;;;;79.68;18.65;;;;;;;23.75;55.57;99585.97;5017657;28;20037;-92
2022/07/23 06:04:51;;;;;;;182.82;25.02;;;;;;;23.78;56.18;99587.97;5018478;28;20052;-91
2022/07/23 06:07:39;;;;;;;52.28;17.30;;;;;;;23.86;55.45;99586.78;5031830;28;20045;-91
2022/07/23 06:10:07;;;;;;;62.97;16.88;;;;;;;23.73;55.34;99554.06;5057370;28;20033;-90
2022/07/23 06:12:33;;;;;;;97.45;19.98;;;;;;;23.75;55.01;99552.47;5013891;28;20065;-90
2022/07/23 06:14:59;;;;;;;40.67;16.40;;;;;;;23.80;54.52;99554.84;5013915;28;20034;-90
2022/07/23 06:17:27;;;;;;;51.83;15.20;;;;;;;23.57;53.92;99518.09;5030069;28;20047;-90
2022/07/23 06:20:06;;;;;;;66.45;17.95;;;;;;;23.85;53.69;99536.94;5025763;28;20045;-93
2022/07/23 06:22:39;;;;;;;78.18;17.13;;;;;;;24.05;53.92;99557.69;5022670;28;20040;-94
2022/07/23 06:27:53;;;;;;;41.40;15.27;;;;;;;23.94;53.17;99542.94;4971173;28;20150;-94
2022/07/23 06:30:20;;;;;;;54.05;16.20;;;;;;;24.09;53.65;99561.25;4942668;28;20055;-91
2022/07/23 06:32:47;;;;;;;82.18;17.88;;;;;;;24.33;53.90;99582.00;4941753;29;20070;-91
2022/07/23 06:35:15;;;;;;;77.78;18.58;;;;;;;24.12;53.44;99532.53;4937164;28;20097;-94
2022/07/23 06:37:42;;;;;;;46.53;17.23;;;;;;;24.47;51.71;99580.44;4939271;28;20054;-90
2022/07/23 06:40:09;;;;;;;50.20;17.10;;;;;;;24.34;53.26;99552.09;4934791;29;20505;-92
2022/07/23 06:42:39;;;;;;;47.92;15.90;;;;;;;24.41;52.60;99560.50;4924499;29;20552;-91
2022/07/23 06:45:30;;;;;;;47.35;15.50;;;;;;;24.56;51.78;99569.66;4941806;28;20062;-93
2022/07/23 06:48:02;;;;;;;34.92;14.75;;;;;;;24.63;51.33;99574.44;4932790;29;20035;-95
2022/07/23 06:50:29;;;;;;;45.97;15.52;;;;;;;24.49;51.91;99538.94;4942519;29;20059;-92
2022/07/23 06:52:56;;;;;;;65.88;16.00;;;;;;;24.54;51.98;99539.31;4926066;29;20126;-91
2022/07/23 06:55:22;;;;;;;64.40;16.05;;;;;;;24.66;53.03;99542.88;4940398;28;20035;-94
2022/07/23 06:57:48;;;;;;;62.17;16.45;;;;;;;24.88;52.62;99566.00;4956052;28;20065;-94
2022/07/23 07:00:16;;;;;;;84.47;17.10;;;;;;;24.60;52.14;99517.34;4932862;29;20054;-93
2022/07/23 07:02:49;;;;;;;99.38;19.23;;;;;;;24.80;50.85;99540.88;4928358;29;20058;-94
2022/07/23 07:05:18;;;;;;;127.97;22.58;;;;;;;24.81;51.31;99538.88;4998808;28;20045;-92
2022/07/23 07:07:51;;;;;;;43.22;15.18;;;;;;;25.03;51.51;99561.94;5028278;28;20045;-90
2022/07/23 07:11:08;;;;;;;55.20;15.88;;;;;;;25.05;50.41;99571.53;5020249;28;20061;-94
2022/07/23 07:13:34;;;;;;;113.60;22.42;;;;;;;25.08;51.03;99565.13;5024325;23;20048;-90
2022/07/23 07:16:00;;;;;;;33.80;13.68;;;;;;;25.01;50.00;99547.59;5021642;28;20029;-91
2022/07/23 07:18:26;;;;;;;43.05;14.45;;;;;;;24.81;51.34;99503.31;5019073;28;20060;-91
2022/07/23 07:20:59;;;;;;;;;;;;;;;25.26;50.35;99558.69;5020000;28;20056;-89
2022/07/23 07:23:51;;;;;;;58.60;16.67;;;;;;;25.34;50.92;99554.66;5034825;28;19982;-90
2022/07/23 07:26:17;;;;;;;54.53;15.57;;;;;;;25.06;48.82;99522.78;5015864;28;20083;-92
2022/07/23 07:29:11;;;;;;;65.03;20.42;;;;;;;25.41;47.83;99565.03;5013362;28;20061;-91
2022/07/23 07:31:43;;;;;;;47.45;14.82;;;;;;;25.12;48.33;99514.00;5050762;28;20366;-91
2022/07/23 07:34:24;;;;;;;51.03;15.40;;;;;;;25.40;47.89;99549.44;5027296;28;20570;-91
2022/07/23 07:36:51;;;;;;;61.38;17.13;;;;;;;25.30;48.92;99523.13;5028490;28;20038;-93
2022/07/23 07:40:16;;;;;;;36.15;15.27;;;;;;;25.65;48.84;99560.50;5007882;28;20044;-90
2022/07/23 07:42:52;;;;;;;62.35;16.67;;;;;;;25.40;48.78;99516.66;5032168;28;20076;-91
2022/07/23 07:45:21;;;;;;;56.05;17.00;;;;;;;25.36;47.92;99504.66;5013861;28;20195;-93
2022/07/23 07:47:47;;;;;;;67.63;16.85;;;;;;;25.78;47.34;99561.59;5011200;28;20056;-90
2022/07/23 07:50:20;;;;;;;61.47;16.95;;;;;;;25.61;48.34;99512.91;5054261;23;20060;-91
2022/07/23 07:52:47;;;;;;;48.35;15.10;;;;;;;25.78;46.89;99522.41;5022597;28;20506;-91
2022/07/23 07:55:13;;;;;;;41.80;15.52;;;;;;;26.01;47.87;99552.69;5010840;28;20144;-88
2022/07/23 07:58:02;;;;;;;33.85;13.43;;;;;;;25.97;47.08;99549.91;5031582;23;20065;-92
2022/07/23 08:00:29;;;;;;;44.38;16.25;;;;;;;25.85;45.36;99533.56;5024215;28;20093;-91
2022/07/23 08:02:55;;;;;;;59.20;16.13;;;;;;;26.00;45.57;99551.09;5007965;28;20491;-93
2022/07/23 08:05:23;;;;;;;67.85;16.35;;;;;;;25.82;46.40;99517.59;5004267;28;20044;-91
2022/07/23 08:07:49;;;;;;;41.25;15.68;;;;;;;25.81;45.63;99506.81;5018130;28;20037;-90
2022/07/23 08:10:22;;;;;;;38.25;14.77;;;;;;;26.16;45.17;99545.75;5006717;28;20029;-89
2022/07/23 08:12:53;;;;;;;37.38;15.20;;;;;;;26.37;44.44;99567.19;5037672;28;20060;-91
2022/07/23 08:15:21;;;;;;;43.10;16.50;;;;;;;26.40;44.61;99569.16;5016758;28;20053;-89
2022/07/23 08:17:49;;;;;;;67.72;24.98;;;;;;;26.19;45.33;99522.50;5031445;28;20037;-88
2022/07/23 08:20:17;;;;;;;41.47;16.83;;;;;;;26.55;44.68;99575.44;5004350;28;20087;-89
2022/07/23 08:22:50;;;;;;;63.85;17.52;;;;;;;26.36;45.99;99531.19;5004979;28;20095;-90
2022/07/23 08:25:26;;;;;;;55.38;17.52;;;;;;;26.63;46.39;99557.34;5011517;28;20048;-88
2022/07/23 08:27:58;;;;;;;64.78;17.55;;;;;;;26.59;46.39;99538.97;5027492;28;20034;-89
2022/07/23 08:30:26;;;;;;;34.78;15.80;;;;;;;26.79;44.03;99559.59;5034549;28;20044;-91
2022/07/23 08:32:59;;;;;;;36.10;16.15;;;;;;;26.64;43.32;99539.31;5051280;28;20041;-88
2022/07/23 08:35:31;;;;;;;49.42;18.77;;;;;;;26.83;44.73;99557.56;5052532;28;20037;-88
2022/07/23 08:38:26;;;;;;;60.42;18.52;;;;;;;26.98;45.40;99560.97;5041551;28;20037;-90
2022/07/23 08:40:54;;;;;;;79.95;19.13;;;;;;;27.04;45.10;99544.47;5045315;28;20045;-88
2022/07/23 08:43:26;;;;;;;59.63;18.55;;;;;;;26.91;43.15;99524.59;5047806;28;20040;-89
2022/07/23 08:45:56;;;;;;;39.55;15.75;;;;;;;26.96;43.02;99524.16;5042977;28;20042;-89
2022/07/23 08:48:28;;;;;;;96.20;20.38;;;;;;;27.12;43.13;99535.56;5044815;28;20405;-89
2022/07/23 08:50:57;;;;;;;48.15;16.88;;;;;;;26.87;41.75;99502.19;5052691;28;20045;-88
2022/07/23 08:53:26;;;;;;;47.65;16.55;;;;;;;26.89;41.70;99499.00;5035103;28;20457;-88
2022/07/23 08:55:56;;;;;;;32.45;15.70;;;;;;;27.04;40.87;99514.41;5015437;28;20133;-89
2022/07/23 08:58:23;;;;;;;43.72;16.33;;;;;;;27.06;43.08;99508.41;5014488;28;20195;-89
2022/07/23 09:00:50;;;;;;;46.97;16.50;;;;;;;27.30;43.13;99521.31;5031733;28;20042;-89
2022/07/23 09:03:22;;;;;;;78.80;19.20;;;;;;;27.16;43.67;99504.69;5014387;28;20086;-90
2022/07/23 09:05:55;;;;;;;47.28;16.13;;;;;;;27.40;43.97;99531.59;5031718;28;20413;-89
2022/07/23 09:08:41;;;;;;;62.40;16.70;;;;;;;27.15;43.43;99495.47;5034281;28;20088;-91
2022/07/23 09:11:09;;;;;;;192.02;30.92;;;;;;;27.16;44.22;99499.84;5033836;28;20037;-89
2022/07/23 09:13:47;;;;;;;296.58;37.63;;;;;;;27.30;43.55;99512.91;5033066;28;20110;-87
2022/07/23 09:16:21;;;;;;;69.35;20.33;;;;;;;27.34;43.03;99516.44;5022019;28;20041;-88
2022/07/23 09:18:50;;;;;;;50.13;18.17;;;;;;;27.25;41.52;99504.97;5036265;28;20046;-88
2022/07/23 09:21:25;;;;;;;30.90;14.65;;;;;;;27.45;42.60;99532.34;5015092;28;20042;-89
2022/07/23 09:24:02;;;;;;;30.10;14.30;;;;;;;27.35;41.48;99517.25;5026295;28;20051;-90
2022/07/23 09:26:47;;;;;;;32.30;14.95;;;;;;;27.46;43.08;99519.91;5014775;28;20515;-89
2022/07/23 09:29:29;;;;;;;30.38;15.38;;;;;;;27.17;41.52;99495.03;5031070;28;20117;-90
2022/07/23 09:32:01;;;;;;;33.78;16.23;;;;;;;27.30;42.21;99501.66;5031234;28;20037;-88
2022/07/23 09:34:32;;;;;;;48.45;17.85;;;;;;;27.48;42.70;99518.25;5040668;28;20540;-87
2022/07/23 09:37:19;;;;;;;28.67;15.15;;;;;;;27.10;41.67;99469.84;5035302;28;20038;-88
2022/07/23 09:39:51;;;;;;;49.60;17.92;;;;;;;26.95;42.71;99452.38;5002040;28;20052;-93
2022/07/23 09:42:57;;;;;;;32.05;14.95;;;;;;;27.46;41.45;99517.91;5036172;28;20037;-94
2022/07/23 09:45:23;;;;;;;38.47;15.15;;;;;;;27.35;42.68;99483.56;5000410;28;20045;-91
2022/07/23 09:47:49;;;;;;;88.65;18.75;;;;;;;27.56;44.96;99483.25;4952878;28;20053;-88
2022/07/23 09:50:20;;;;;;;38.28;15.95;;;;;;;27.48;43.82;99455.69;5011144;28;20057;-92
2022/07/23 09:52:48;;;;;;;26.25;15.65;;;;;;;27.90;41.11;99504.03;4995350;28;20456;-86
2022/07/23 09:55:15;;;;;;;24.50;16.13;;;;;;;27.80;39.65;99477.69;4992873;28;20053;-89
2022/07/23 09:57:45;;;;;;;38.22;15.80;;;;;;;27.78;40.08;99488.53;4904534;28;1675005;-88
2022/07/23 10:00:12;;;;;;;32.03;15.43;;;;;;;27.83;40.28;99486.06;5015191;28;20054;-89
2022/07/23 10:02:39;;;;;;;32.40;15.85;;;;;;;27.92;42.14;99473.50;5003741;28;20030;-88
2022/07/23 10:05:25;;;;;;;31.08;16.10;;;;;;;27.81;39.71;99465.22;4988783;28;20046;-91
2022/07/23 10:08:12;;;;;;;32.00;16.17;;;;;;;28.03;40.06;99474.88;4997709;28;20073;-92
2022/07/23 10:10:58;;;;;;;23.58;15.40;;;;;;;28.06;40.60;99467.63;5006464;28;20047;-89
2022/07/23 10:14:00;;;;;;;38.58;16.45;;;;;;;28.15;40.15;99465.06;4992610;28;20042;-89
2022/07/23 10:17:27;;;;;;;28.08;16.35;;;;;;;28.42;38.41;99500.75;5016473;28;20053;-95
2022/07/23 10:19:54;;;;;;;26.23;15.55;;;;;;;28.01;37.82;99449.25;4952186;29;20047;-89
2022/07/23 10:22:39;;;;;;;30.73;15.07;;;;;;;28.47;39.80;99486.97;4975939;28;20469;-90
2022/07/23 10:25:14;;;;;;;32.75;16.95;;;;;;;28.65;40.27;99478.19;4988990;28;20507;-90
2022/07/23 10:28:36;;;;;;;28.85;15.85;;;;;;;28.81;38.03;99494.38;5009747;23;20045;-88
2022/07/23 10:31:31;;;;;;;30.85;16.45;;;;;;;28.64;39.04;99479.41;5032149;28;20037;-90
2022/07/23 10:34:16;;;;;;;32.87;17.17;;;;;;;28.61;37.57;99480.28;5010467;28;20514;-89
2022/07/23 10:36:55;;;;;;;28.35;16.17;;;;;;;28.18;37.33;99429.66;5024454;28;20041;-89
2022/07/23 10:39:28;;;;;;;30.83;15.80;;;;;;;28.22;38.08;99442.44;5025770;28;20041;-92
2022/07/23 10:42:16;;;;;;;24.20;15.45;;;;;;;28.31;37.17;99472.78;5030140;28;20048;-90
2022/07/23 10:44:47;;;;;;;30.05;16.35;;;;;;;28.11;37.21;99472.72;5041485;28;20176;-91
2022/07/23 10:47:47;;;;;;;36.58;17.15;;;;;;;27.67;38.85;99432.53;5041344;28;20055;-92
2022/07/23 10:50:36;;;;;;;33.72;18.25;;;;;;;27.55;38.10;99424.69;5024899;28;20057;-89
2022/07/23 10:53:15;;;;;;;30.52;16.55;;;;;;;27.50;38.02;99430.81;5006946;28;20041;-90
2022/07/23 10:55:44;;;;;;;30.23;15.90;;;;;;;27.40;38.83;99422.13;5040869;28;20045;-90
2022/07/23 10:58:16;;;;;;;28.33;15.98;;;;;;;27.49;38.53;99457.31;5010274;28;20124;-92
2022/07/23 11:00:42;;;;;;;32.03;15.27;;;;;;;27.38;38.62;99447.03;5017054;28;20045;-89
2022/07/23 11:03:37;;;;;;;27.92;15.27;;;;;;;27.41;40.07;99456.59;5005916;28;20114;-90
2022/07/23 11:06:05;;;;;;;37.95;16.60;;;;;;;27.41;41.38;99453.78;5044389;28;20067;-91
2022/07/23 11:08:31;;;;;;;31.95;16.95;;;;;;;27.37;40.47;99422.97;5040576;28;20037;-90
2022/07/23 11:11:04;;;;;;;43.58;17.13;;;;;;;27.88;40.94;99442.63;5036885;28;20036;-90
2022/07/23 11:13:35;;;;;;;43.10;16.15;;;;;;;28.03;42.96;99440.38;5036119;28;20167;-89
2022/07/23 11:16:04;;;;;;;37.90;17.50;;;;;;;28.19;42.45;99446.09;5027549;28;20041;-93
2022/07/23 11:18:58;;;;;;;35.03;16.85;;;;;;;28.05;41.77;99443.56;5015983;28;20551;-89
2022/07/23 11:21:28;;;;;;;29.63;15.40;;;;;;;27.78;42.37;99436.00;5004039;28;20040;-88
2022/07/23 11:24:06;;;;;;;36.58;16.77;;;;;;;27.69;40.56;99444.13;5036878;28;20069;-88
2022/07/23 11:27:00;;;;;;;35.25;15.82;;;;;;;27.53;41.61;99413.91;5037405;28;20068;-89
2022/07/23 11:29:26;;;;;;;127.50;34.22;;;;;;;27.58;44.29;99441.50;5014127;28;20495;-90
2022/07/23 11:31:53;;;;;;;;;;;;;;;27.43;44.58;99437.31;5020254;28;20136;-88
2022/07/23 11:34:42;;;;;;;293.90;42.35;;;;;;;27.27;44.69;99439.97;5032663;28;19925;-87
2022/07/23 11:37:10;;;;;;;242.55;38.97;;;;;;;26.71;45.44;99376.56;5001362;28;20048;-90
2022/07/23 11:39:38;;;;;;;189.82;30.02;;;;;;;26.85;41.24;99411.25;5021075;28;20045;-91
2022/07/23 11:42:07;;;;;;;53.17;17.08;;;;;;;26.82;41.10;99384.88;5035159;28;20029;-88
2022/07/23 11:44:40;;;;;;;758.38;62.20;;;;;;;27.10;43.18;99431.34;5014915;28;20426;-88
2022/07/23 11:47:13;;;;;;;133.98;25.23;;;;;;;27.03;41.54;99416.63;4985008;28;20071;-89
2022/07/23 11:49:54;;;;;;;69.40;20.42;;;;;;;27.21;41.84;99436.03;4984467;28;20072;-88
2022/07/23 11:52:20;;;;;;;57.78;19.73;;;;;;;27.15;41.50;99421.69;5034621;28;20073;-87